createdAt,value
2023-01-29T00:02:29.296Z,80.49
2023-01-29T00:04:59.054Z,81.48
2023-01-29T00:07:27.511Z,81.71
2023-01-29T00:09:55.456Z,81.46
2023-01-29T00:12:23.623Z,81.69
2023-01-29T00:14:51.837Z,82.53
2023-01-29T00:17:19.890Z,82.15
2023-01-29T00:19:49.539Z,82.81
2023-01-29T00:22:17.745Z,82.58
2023-01-29T00:24:45.877Z,81.96
2023-01-29T00:27:13.790Z,82.79
2023-01-29T00:29:42.118Z,82.25
2023-01-29T00:32:10.317Z,82.58
2023-01-29T00:34:38.714Z,82.65
2023-01-29T00:37:09.473Z,83.23
2023-01-29T00:39:47.897Z,82.80
2023-01-29T00:42:34.105Z,82.94
2023-01-29T00:45:02.270Z,81.97
2023-01-29T00:47:34.656Z,82.72
2023-01-29T00:50:03.231Z,82.26
2023-01-29T00:52:33.140Z,82.77
2023-01-29T00:55:02.074Z,82.41
2023-01-29T00:57:32.029Z,82.71
2023-01-29T01:00:00.178Z,81.91
2023-01-29T01:02:46.967Z,82.50
2023-01-29T01:05:18.889Z,82.21
2023-01-29T01:07:50.382Z,81.73
2023-01-29T01:10:24.207Z,82.64
2023-01-29T01:12:56.693Z,83.62
2023-01-29T01:15:26.276Z,82.88
2023-01-29T01:17:55.609Z,82.72
2023-01-29T01:20:23.759Z,81.75
2023-01-29T01:22:54.518Z,82.73
2023-01-29T01:25:22.891Z,81.48
2023-01-29T01:27:54.353Z,82.04
2023-01-29T01:30:22.952Z,81.23
2023-01-29T01:32:51.265Z,82.24
2023-01-29T01:35:20.243Z,81.16
2023-01-29T01:37:48.696Z,82.40
2023-01-29T01:40:20.413Z,81.72
2023-01-29T01:42:50.894Z,81.52
2023-01-29T01:45:26.209Z,82.48
2023-01-29T01:47:58.301Z,82.85
2023-01-29T01:50:31.005Z,83.01
2023-01-29T01:53:03.843Z,82.84
2023-01-29T01:55:35.334Z,83.40
2023-01-29T01:58:10.119Z,82.26
2023-01-29T02:00:38.452Z,82.88
2023-01-29T02:03:26.371Z,83.14
2023-01-29T02:06:14.048Z,82.18
2023-01-29T02:09:06.435Z,82.51
2023-01-29T02:11:35.787Z,82.10
2023-01-29T02:14:04.065Z,83.13
2023-01-29T02:16:32.499Z,83.03
2023-01-29T02:19:00.609Z,83.14
2023-01-29T02:21:51.401Z,83.17
2023-01-29T02:24:52.550Z,82.67
2023-01-29T02:27:25.941Z,83.21
2023-01-29T02:30:03.897Z,82.11
2023-01-29T02:32:54.820Z,82.30
2023-01-29T02:35:32.001Z,83.22
2023-01-29T02:38:13.387Z,83.18
2023-01-29T02:40:47.035Z,82.72
2023-01-29T02:43:29.830Z,82.70
2023-01-29T02:46:06.731Z,83.22
2023-01-29T02:48:43.284Z,82.49
2023-01-29T02:51:20.282Z,82.52
2023-01-29T02:53:56.039Z,82.09
2023-01-29T02:56:31.326Z,82.44
2023-01-29T02:59:04.523Z,82.64
2023-01-29T03:01:40.001Z,82.78
2023-01-29T03:04:13.055Z,82.91
2023-01-29T03:06:45.095Z,83.01
2023-01-29T03:09:21.302Z,84.12
2023-01-29T03:11:54.015Z,84.21
2023-01-29T03:14:49.624Z,83.78
2023-01-29T03:17:21.310Z,83.95
2023-01-29T03:19:51.073Z,84.77
2023-01-29T03:22:21.975Z,84.38
2023-01-29T03:25:11.370Z,84.84
2023-01-29T03:28:00.423Z,83.19
2023-01-29T03:30:49.926Z,82.20
2023-01-29T03:33:22.514Z,82.34
2023-01-29T03:35:56.881Z,81.60
2023-01-29T03:38:29.562Z,81.85
2023-01-29T03:41:04.686Z,81.64
2023-01-29T03:43:38.012Z,82.07
2023-01-29T03:46:11.809Z,82.01
2023-01-29T03:48:48.197Z,83.28
2023-01-29T03:51:28.109Z,83.53
2023-01-29T03:54:05.619Z,83.96
2023-01-29T03:56:44.709Z,83.22
2023-01-29T03:59:20.801Z,83.49
2023-01-29T04:01:53.123Z,84.30
2023-01-29T04:04:26.355Z,83.74
2023-01-29T04:06:58.865Z,83.71
2023-01-29T04:09:32.679Z,83.63
2023-01-29T04:12:05.749Z,84.75
2023-01-29T04:14:34.580Z,84.22
2023-01-29T04:17:09.446Z,84.24
2023-01-29T04:19:39.777Z,84.46
2023-01-29T04:22:14.343Z,84.31
2023-01-29T04:24:43.594Z,83.89
2023-01-29T04:27:25.329Z,84.08
2023-01-29T04:30:09.260Z,84.32
2023-01-29T04:32:51.947Z,84.67
2023-01-29T04:35:29.966Z,84.84
2023-01-29T04:38:08.815Z,83.65
2023-01-29T04:40:47.527Z,84.59
2023-01-29T04:43:20.642Z,84.02
2023-01-29T04:46:01.083Z,84.80
2023-01-29T04:48:34.048Z,83.65
2023-01-29T04:51:09.638Z,83.62
2023-01-29T04:53:42.837Z,82.53
2023-01-29T04:56:18.915Z,83.36
2023-01-29T04:58:51.374Z,83.39
2023-01-29T05:01:22.465Z,82.65
2023-01-29T05:03:55.385Z,83.89
2023-01-29T05:06:26.544Z,83.20
2023-01-29T05:08:56.154Z,82.61
2023-01-29T05:11:25.910Z,83.05
2023-01-29T05:13:54.525Z,84.39
2023-01-29T05:16:27.344Z,84.54
2023-01-29T05:18:56.448Z,83.95
2023-01-29T05:21:28.889Z,83.33
2023-01-29T05:24:08.771Z,83.85
2023-01-29T05:26:54.544Z,83.74
2023-01-29T05:29:23.159Z,83.66
2023-01-29T05:31:51.617Z,83.96
2023-01-29T05:34:20.120Z,84.05
2023-01-29T05:36:49.576Z,83.77
2023-01-29T05:39:18.160Z,83.72
2023-01-29T05:41:46.799Z,83.19
2023-01-29T05:44:15.312Z,83.51
2023-01-29T05:46:43.857Z,84.77
2023-01-29T05:49:12.493Z,84.09
2023-01-29T05:51:40.513Z,84.59
2023-01-29T05:54:12.554Z,84.53
2023-01-29T05:56:40.675Z,84.40
2023-01-29T05:59:08.582Z,84.63
2023-01-29T06:01:36.993Z,84.88
2023-01-29T06:04:05.063Z,83.85
2023-01-29T06:06:33.003Z,84.04
2023-01-29T06:09:01.085Z,83.77
2023-01-29T06:11:30.375Z,84.57
2023-01-29T06:13:58.551Z,84.26
2023-01-29T06:16:26.900Z,83.65
2023-01-29T06:18:55.138Z,84.36
2023-01-29T06:21:23.133Z,82.39
2023-01-29T06:23:54.161Z,82.23
2023-01-29T06:26:22.513Z,82.90
2023-01-29T06:28:52.428Z,83.50
2023-01-29T06:31:36.889Z,83.19
2023-01-29T06:34:06.160Z,83.97
2023-01-29T06:36:34.700Z,84.46
2023-01-29T06:39:02.676Z,83.70
2023-01-29T06:41:31.046Z,84.45
2023-01-29T06:44:00.929Z,84.45
2023-01-29T06:46:28.906Z,83.97
2023-01-29T06:48:59.274Z,85.22
2023-01-29T06:51:28.092Z,84.03
2023-01-29T06:53:57.076Z,83.86
2023-01-29T06:56:25.879Z,82.50
2023-01-29T06:58:54.639Z,82.51
2023-01-29T07:01:35.700Z,83.44
2023-01-29T07:04:04.888Z,83.64
2023-01-29T07:06:33.519Z,84.04
2023-01-29T07:09:01.537Z,84.01
2023-01-29T07:11:29.824Z,84.74
2023-01-29T07:13:58.047Z,83.54
2023-01-29T07:16:28.172Z,83.42
2023-01-29T07:18:56.937Z,83.48
2023-01-29T07:21:25.136Z,83.90
2023-01-29T07:23:53.099Z,83.70
2023-01-29T07:26:21.053Z,84.16
2023-01-29T07:28:48.956Z,83.86
2023-01-29T07:31:17.232Z,83.96
2023-01-29T07:33:46.865Z,84.71
2023-01-29T07:36:17.638Z,83.92
2023-01-29T07:38:45.528Z,83.56
2023-01-29T07:41:14.057Z,83.43
2023-01-29T07:43:42.602Z,82.78
2023-01-29T07:46:10.791Z,82.89
2023-01-29T07:48:39.191Z,82.81
2023-01-29T07:51:09.537Z,83.11
2023-01-29T07:53:38.333Z,82.06
2023-01-29T07:56:06.916Z,81.32
2023-01-29T07:58:36.757Z,81.15
2023-01-29T08:01:07.521Z,81.51
2023-01-29T08:03:36.371Z,81.58
2023-01-29T08:06:05.326Z,83.14
2023-01-29T08:08:35.104Z,82.84
2023-01-29T08:11:04.098Z,83.10
2023-01-29T08:13:32.075Z,82.43
2023-01-29T08:16:03.956Z,81.17
2023-01-29T08:18:32.541Z,81.36
2023-01-29T08:21:02.049Z,81.05
2023-01-29T08:23:30.962Z,80.77
2023-01-29T08:26:00.474Z,81.02
2023-01-29T08:28:28.909Z,81.38
2023-01-29T08:30:57.643Z,79.94
2023-01-29T08:33:38.701Z,80.95
2023-01-29T08:36:08.749Z,80.39
2023-01-29T08:38:37.502Z,80.22
2023-01-29T08:41:07.316Z,81.03
2023-01-29T08:43:37.337Z,81.14
2023-01-29T08:46:06.125Z,81.28
2023-01-29T08:48:34.345Z,80.04
2023-01-29T08:51:04.911Z,79.21
2023-01-29T08:53:35.326Z,79.60
2023-01-29T08:56:03.302Z,81.08
2023-01-29T08:58:32.992Z,79.89
2023-01-29T09:01:08.091Z,78.95
2023-01-29T09:03:41.280Z,78.80
2023-01-29T09:06:11.847Z,78.49
2023-01-29T09:08:40.159Z,78.77
2023-01-29T09:11:12.396Z,78.18
2023-01-29T09:13:42.083Z,79.16
2023-01-29T09:16:11.588Z,76.89
2023-01-29T09:18:39.895Z,76.67
2023-01-29T09:21:07.960Z,77.92
2023-01-29T09:23:36.221Z,77.50
2023-01-29T09:26:04.678Z,76.94
2023-01-29T09:28:32.653Z,75.65
2023-01-29T09:31:04.292Z,75.42
2023-01-29T09:33:32.553Z,74.92
2023-01-29T09:36:00.575Z,75.03
2023-01-29T09:38:29.116Z,74.96
2023-01-29T09:41:04.852Z,74.49
2023-01-29T09:43:44.895Z,75.28
2023-01-29T09:46:20.478Z,74.75
2023-01-29T09:48:54.271Z,75.49
2023-01-29T09:51:31.625Z,76.07
2023-01-29T09:54:08.976Z,75.51
2023-01-29T09:56:36.915Z,76.14
2023-01-29T09:59:04.873Z,76.21
2023-01-29T10:01:41.968Z,75.14
2023-01-29T10:04:30.261Z,75.69
2023-01-29T10:07:16.573Z,74.99
2023-01-29T10:09:58.422Z,74.46
2023-01-29T10:12:41.239Z,73.70
2023-01-29T10:15:23.383Z,73.43
2023-01-29T10:18:10.003Z,73.34
2023-01-29T10:21:06.823Z,72.92
2023-01-29T10:23:38.277Z,72.60
2023-01-29T10:26:10.755Z,71.39
2023-01-29T10:28:46.325Z,71.18
2023-01-29T10:31:19.775Z,71.20
2023-01-29T10:34:02.421Z,69.42
2023-01-29T10:36:42.944Z,70.60
2023-01-29T10:42:19.803Z,69.17
2023-01-29T10:45:00.171Z,70.71
2023-01-29T10:47:54.155Z,70.83
2023-01-29T10:50:48.419Z,70.84
2023-01-29T10:57:18.319Z,67.71
2023-01-29T11:00:18.629Z,68.42
2023-01-29T11:02:49.320Z,70.01
2023-01-29T11:05:35.648Z,69.64
2023-01-29T11:08:11.571Z,69.01
2023-01-29T11:10:47.056Z,68.58
2023-01-29T11:13:17.494Z,67.41
2023-01-29T11:15:45.722Z,68.72
2023-01-29T11:18:16.155Z,67.74
2023-01-29T11:20:47.956Z,67.76
2023-01-29T11:23:28.942Z,68.12
2023-01-29T11:25:59.486Z,68.48
2023-01-29T11:28:38.123Z,68.49
2023-01-29T11:31:18.261Z,68.59
2023-01-29T11:33:47.732Z,68.90
2023-01-29T11:36:46.834Z,69.77
2023-01-29T11:39:23.871Z,69.62
2023-01-29T11:42:01.958Z,68.66
2023-01-29T11:44:46.672Z,67.53
2023-01-29T11:47:20.668Z,69.19
2023-01-29T11:50:12.404Z,69.92
2023-01-29T11:53:04.967Z,69.81
2023-01-29T11:55:50.293Z,68.46
2023-01-29T11:58:43.822Z,68.14
2023-01-29T12:01:58.594Z,69.72
2023-01-29T12:04:28.439Z,69.59
2023-01-29T12:06:56.974Z,69.23
2023-01-29T12:09:29.046Z,68.75
2023-01-29T12:11:57.279Z,69.14
2023-01-29T12:15:20.005Z,69.99
2023-01-29T12:17:26.933Z,69.69
2023-01-29T12:19:59.044Z,68.45
2023-01-29T12:22:45.606Z,68.45
2023-01-29T12:25:24.292Z,68.33
2023-01-29T12:28:03.871Z,68.76
2023-01-29T12:30:47.691Z,68.52
2023-01-29T12:33:22.540Z,68.61
2023-01-29T12:35:58.181Z,67.51
2023-01-29T12:38:26.777Z,68.25
2023-01-29T12:41:10.037Z,67.67
2023-01-29T12:43:41.595Z,67.96
2023-01-29T12:46:19.841Z,67.96
2023-01-29T12:48:49.788Z,67.93
2023-01-29T12:51:24.292Z,67.70
2023-01-29T12:53:58.616Z,67.66
2023-01-29T12:56:37.409Z,66.92
2023-01-29T12:59:20.493Z,66.56
2023-01-29T13:02:01.619Z,66.94
2023-01-29T13:04:43.753Z,66.84
2023-01-29T13:07:19.293Z,67.25
2023-01-29T13:09:52.393Z,67.04
2023-01-29T13:12:39.018Z,67.10
2023-01-29T13:15:23.523Z,66.66
2023-01-29T13:18:09.284Z,67.16
2023-01-29T13:20:39.000Z,67.25
2023-01-29T13:23:32.335Z,66.55
2023-01-29T13:26:05.722Z,66.97
2023-01-29T13:28:41.161Z,67.49
2023-01-29T13:34:26.403Z,67.94
2023-01-29T13:36:57.473Z,68.81
2023-01-29T13:39:30.036Z,68.13
2023-01-29T13:42:00.729Z,67.26
2023-01-29T13:44:35.674Z,67.29
2023-01-29T13:50:07.970Z,67.31
2023-01-29T13:52:40.932Z,68.77
2023-01-29T13:55:24.386Z,68.09
2023-01-29T13:57:56.166Z,68.83
2023-01-29T14:00:54.181Z,69.88
2023-01-29T14:04:04.663Z,70.11
2023-01-29T14:06:52.117Z,70.04
2023-01-29T14:10:00.171Z,69.62
2023-01-29T14:12:39.379Z,69.88
2023-01-29T14:15:27.349Z,68.64
2023-01-29T14:17:59.839Z,68.75
2023-01-29T14:20:45.083Z,69.46
2023-01-29T14:23:26.139Z,69.98
2023-01-29T14:25:54.535Z,70.83
2023-01-29T14:28:25.361Z,71.05
2023-01-29T14:30:53.831Z,70.20
2023-01-29T14:33:34.416Z,69.61
2023-01-29T14:36:08.219Z,70.95
2023-01-29T14:38:37.029Z,71.12
2023-01-29T14:41:17.164Z,71.00
2023-01-29T14:43:45.242Z,71.26
2023-01-29T14:46:45.829Z,71.25
2023-01-29T14:49:14.115Z,70.43
2023-01-29T14:51:46.682Z,70.22
2023-01-29T14:54:24.136Z,70.26
2023-01-29T14:57:00.653Z,70.11
2023-01-29T14:59:35.714Z,70.86
2023-01-29T15:02:14.571Z,69.97
2023-01-29T15:04:47.981Z,69.91
2023-01-29T15:07:37.804Z,70.30
2023-01-29T15:10:22.437Z,69.48
2023-01-29T15:12:58.241Z,69.55
2023-01-29T15:15:35.594Z,69.04
2023-01-29T15:18:09.472Z,69.93
2023-01-29T15:20:39.642Z,69.24
2023-01-29T15:23:27.100Z,69.15
2023-01-29T15:25:57.938Z,69.94
2023-01-29T15:28:26.578Z,69.66
2023-01-29T15:30:59.273Z,69.92
2023-01-29T15:33:32.738Z,69.79
2023-01-29T15:36:07.994Z,70.47
2023-01-29T15:38:37.926Z,70.68
2023-01-29T15:41:19.522Z,71.19
2023-01-29T15:43:56.565Z,71.47
2023-01-29T15:46:28.742Z,70.50
2023-01-29T15:49:03.600Z,71.37
2023-01-29T15:54:32.528Z,71.12
2023-01-29T15:57:02.319Z,71.60
2023-01-29T15:59:35.487Z,71.71
2023-01-29T16:02:28.733Z,72.55
2023-01-29T16:04:57.880Z,72.10
2023-01-29T16:07:26.480Z,73.04
2023-01-29T16:09:57.801Z,73.74
2023-01-29T16:12:26.667Z,73.48
2023-01-29T16:14:54.946Z,73.11
2023-01-29T16:17:28.620Z,74.49
2023-01-29T16:19:57.865Z,74.58
2023-01-29T16:22:27.440Z,75.32
2023-01-29T16:24:59.231Z,75.71
2023-01-29T16:27:27.941Z,74.91
2023-01-29T16:29:55.951Z,75.51
2023-01-29T16:32:23.996Z,75.76
2023-01-29T16:34:58.543Z,75.92
2023-01-29T16:37:30.075Z,75.51
2023-01-29T16:40:00.604Z,76.02
2023-01-29T16:42:30.896Z,76.84
2023-01-29T16:45:02.276Z,76.29
2023-01-29T16:47:33.457Z,76.86
2023-01-29T16:50:05.522Z,77.67
2023-01-29T16:52:35.843Z,78.11
2023-01-29T16:55:22.107Z,77.89
2023-01-29T16:57:54.790Z,77.38
2023-01-29T17:00:37.396Z,77.95
2023-01-29T17:03:07.825Z,77.54
2023-01-29T17:05:39.688Z,77.06
2023-01-29T17:08:09.249Z,77.28
2023-01-29T17:10:39.184Z,77.83
2023-01-29T17:13:10.455Z,78.39
2023-01-29T17:15:47.337Z,78.06
2023-01-29T17:18:19.494Z,79.34
2023-01-29T17:20:48.293Z,79.00
2023-01-29T17:23:16.437Z,79.77
2023-01-29T17:25:49.232Z,79.60
2023-01-29T17:28:18.749Z,79.07
2023-01-29T17:31:00.349Z,79.17
2023-01-29T17:33:33.902Z,78.36
2023-01-29T17:36:02.260Z,78.59
2023-01-29T17:38:31.284Z,79.11
2023-01-29T17:41:06.116Z,79.93
2023-01-29T17:43:34.116Z,78.82
2023-01-29T17:46:02.131Z,79.81
2023-01-29T17:48:32.129Z,79.44
2023-01-29T17:51:03.741Z,80.44
2023-01-29T17:53:44.812Z,79.44
2023-01-29T17:56:19.618Z,79.49
2023-01-29T17:58:47.725Z,80.01
2023-01-29T18:01:15.620Z,80.43
2023-01-29T18:03:43.921Z,81.10
2023-01-29T18:06:18.915Z,81.02
2023-01-29T18:08:47.303Z,82.00
2023-01-29T18:11:15.323Z,81.02
2023-01-29T18:13:45.029Z,81.45
2023-01-29T18:16:13.456Z,81.53
2023-01-29T18:18:41.456Z,80.86
2023-01-29T18:21:10.621Z,80.34
2023-01-29T18:23:38.909Z,81.31
2023-01-29T18:26:07.580Z,81.62
2023-01-29T18:28:35.507Z,82.48
2023-01-29T18:31:06.047Z,82.14
2023-01-29T18:33:34.399Z,82.10
2023-01-29T18:36:04.892Z,82.45
2023-01-29T18:38:33.788Z,81.87
2023-01-29T18:41:06.602Z,81.65
2023-01-29T18:43:34.980Z,81.81
2023-01-29T18:46:04.738Z,82.38
2023-01-29T18:48:32.780Z,82.04
2023-01-29T18:51:01.334Z,82.28
2023-01-29T18:53:29.722Z,81.46
2023-01-29T18:55:59.053Z,81.66
2023-01-29T18:58:36.374Z,81.92
2023-01-29T19:01:11.795Z,82.36
2023-01-29T19:03:40.674Z,82.46
2023-01-29T19:06:11.197Z,82.79
2023-01-29T19:08:39.620Z,83.00
2023-01-29T19:11:09.421Z,82.99
2023-01-29T19:13:38.504Z,83.04
2023-01-29T19:16:10.962Z,82.84
2023-01-29T19:18:39.451Z,83.81
2023-01-29T19:21:08.921Z,83.09
2023-01-29T19:23:37.465Z,82.99
2023-01-29T19:26:06.072Z,83.48
2023-01-29T19:28:34.906Z,82.96
2023-01-29T19:31:04.362Z,82.69
2023-01-29T19:33:34.922Z,83.49
2023-01-29T19:36:03.736Z,83.01
2023-01-29T19:38:33.778Z,83.19
2023-01-29T19:41:05.913Z,83.89
2023-01-29T19:43:45.589Z,82.96
2023-01-29T19:46:39.823Z,84.24
2023-01-29T19:49:10.789Z,83.92
2023-01-29T19:51:40.917Z,83.66
2023-01-29T19:54:11.020Z,83.84
2023-01-29T19:56:42.712Z,83.47
2023-01-29T19:59:13.402Z,83.42
2023-01-29T20:01:43.665Z,84.36
2023-01-29T20:04:19.349Z,84.29
2023-01-29T20:06:47.555Z,83.91
2023-01-29T20:09:17.803Z,84.11
2023-01-29T20:11:48.132Z,82.41
2023-01-29T20:14:18.148Z,82.71
2023-01-29T20:16:47.898Z,83.31
2023-01-29T20:19:20.142Z,83.79
2023-01-29T20:21:52.638Z,82.90
2023-01-29T20:24:21.154Z,84.07
2023-01-29T20:26:49.334Z,83.65
2023-01-29T20:29:18.808Z,84.10
2023-01-29T20:31:48.254Z,84.07
2023-01-29T20:34:19.491Z,84.34
2023-01-29T20:36:47.829Z,83.82
2023-01-29T20:39:16.049Z,84.26
2023-01-29T20:41:47.546Z,84.75
2023-01-29T20:44:16.201Z,84.69
2023-01-29T20:46:44.771Z,84.77
2023-01-29T20:49:13.539Z,84.49
2023-01-29T20:51:44.382Z,85.44
2023-01-29T20:54:15.578Z,85.20
2023-01-29T20:56:45.317Z,85.49
2023-01-29T20:59:15.295Z,85.58
2023-01-29T21:01:44.082Z,85.50
2023-01-29T21:04:12.048Z,85.88
2023-01-29T21:06:41.428Z,85.29
2023-01-29T21:09:10.883Z,85.87
2023-01-29T21:11:38.877Z,85.54
2023-01-29T21:14:07.627Z,85.54
2023-01-29T21:16:35.885Z,85.17
2023-01-29T21:19:04.146Z,85.68
2023-01-29T21:21:32.509Z,85.31
2023-01-29T21:24:00.595Z,85.31
2023-01-29T21:26:30.098Z,86.30
2023-01-29T21:28:58.359Z,85.79
2023-01-29T21:31:26.499Z,85.66
2023-01-29T21:33:54.494Z,86.40
2023-01-29T21:36:23.093Z,85.80
2023-01-29T21:38:51.359Z,85.88
2023-01-29T21:41:19.568Z,85.90
2023-01-29T21:43:48.147Z,85.46
2023-01-29T21:46:16.194Z,85.41
2023-01-29T21:48:44.588Z,85.39
2023-01-29T21:51:12.532Z,86.28
2023-01-29T21:53:40.482Z,85.26
2023-01-29T21:56:09.536Z,86.38
2023-01-29T21:58:37.465Z,86.76
2023-01-29T22:01:36.403Z,86.15
2023-01-29T22:03:55.771Z,85.88
2023-01-29T22:06:24.069Z,85.86
2023-01-29T22:08:52.240Z,86.18
2023-01-29T22:11:20.713Z,86.59
2023-01-29T22:13:48.731Z,86.62
2023-01-29T22:16:17.979Z,86.79
2023-01-29T22:18:46.415Z,86.57
2023-01-29T22:21:14.963Z,86.82
2023-01-29T22:23:42.871Z,86.63
2023-01-29T22:26:12.114Z,86.31
2023-01-29T22:28:40.127Z,86.39
2023-01-29T22:31:08.460Z,87.05
2023-01-29T22:33:37.828Z,86.88
2023-01-29T22:36:06.806Z,86.90
2023-01-29T22:38:34.710Z,86.81
2023-01-29T22:41:04.690Z,87.09
2023-01-29T22:43:33.062Z,87.32
2023-01-29T22:46:01.056Z,87.38
2023-01-29T22:48:30.585Z,87.54
2023-01-29T22:51:11.367Z,87.61
2023-01-29T22:53:40.984Z,86.77
2023-01-29T22:56:10.024Z,87.44
2023-01-29T22:58:38.614Z,87.54
2023-01-29T23:01:06.767Z,87.36
2023-01-29T23:03:35.504Z,87.40
2023-01-29T23:06:05.919Z,87.31
2023-01-29T23:08:33.984Z,86.78
2023-01-29T23:11:14.758Z,87.13
2023-01-29T23:13:44.304Z,86.68
2023-01-29T23:16:12.922Z,86.82
2023-01-29T23:18:41.745Z,86.99
2023-01-29T23:21:12.581Z,87.35
2023-01-29T23:23:40.872Z,87.63
2023-01-29T23:26:27.035Z,87.19
2023-01-29T23:28:55.656Z,86.82
2023-01-29T23:31:24.008Z,87.56
2023-01-29T23:33:52.248Z,87.12
2023-01-29T23:36:21.514Z,86.75
2023-01-29T23:38:49.360Z,86.62
2023-01-29T23:41:17.729Z,86.69
2023-01-29T23:43:46.092Z,86.94
2023-01-29T23:46:14.334Z,87.10
2023-01-29T23:48:42.750Z,87.05
2023-01-29T23:51:10.823Z,87.11
2023-01-29T23:53:40.147Z,87.08
2023-01-29T23:56:08.853Z,86.91
2023-01-29T23:58:36.709Z,86.65
